sensor_id;sensor_type;location;lat;lon;timestamp;pressure;altitude;pressure_sealevel;temperature;humidity
71109;BME280;59614;51.012;-1.648;2023-02-19T00:01:23;101509.88;;;8.67;100.00
71109;BME280;59614;51.012;-1.648;2023-02-19T00:03:54;101501.94;;;8.61;100.00
71109;BME280;59614;51.012;-1.648;2023-02-19T00:06:22;101495.84;;;8.65;100.00
71109;BME280;59614;51.012;-1.648;2023-02-19T00:08:47;101494.81;;;8.47;100.00
71109;BME280;59614;51.012;-1.648;2023-02-19T00:11:22;101488.75;;;8.55;100.00
71109;BME280;59614;51.012;-1.648;2023-02-19T00:13:50;101496.44;;;8.39;100.00
71109;BME280;59614;51.012;-1.648;2023-02-19T00:16:21;101505.22;;;8.38;100.00
71109;BME280;59614;51.012;-1.648;2023-02-19T00:18:47;101515.69;;;8.33;100.00
71109;BME280;59614;51.012;-1.648;2023-02-19T00:21:14;101516.56;;;8.34;100.00
71109;BME280;59614;51.012;-1.648;2023-02-19T00:23:39;101528.66;;;8.16;100.00
71109;BME280;59614;51.012;-1.648;2023-02-19T00:26:09;101531.38;;;8.24;100.00
71109;BME280;59614;51.012;-1.648;2023-02-19T00:28:35;101533.00;;;8.13;100.00
71109;BME280;59614;51.012;-1.648;2023-02-19T00:31:05;101532.25;;;8.25;100.00
71109;BME280;59614;51.012;-1.648;2023-02-19T00:33:31;101527.75;;;8.14;100.00
71109;BME280;59614;51.012;-1.648;2023-02-19T00:36:01;101532.09;;;8.09;100.00
71109;BME280;59614;51.012;-1.648;2023-02-19T00:38:27;101536.38;;;8.02;100.00
71109;BME280;59614;51.012;-1.648;2023-02-19T00:40:52;101540.84;;;8.11;100.00
71109;BME280;59614;51.012;-1.648;2023-02-19T00:43:18;101547.78;;;8.03;100.00
71109;BME280;59614;51.012;-1.648;2023-02-19T00:45:43;101556.50;;;7.99;100.00
71109;BME280;59614;51.012;-1.648;2023-02-19T00:48:09;101557.22;;;7.87;100.00
71109;BME280;59614;51.012;-1.648;2023-02-19T00:50:35;101559.00;;;7.88;100.00
71109;BME280;59614;51.012;-1.648;2023-02-19T00:53:00;101562.56;;;7.93;100.00
71109;BME280;59614;51.012;-1.648;2023-02-19T00:55:25;101556.41;;;7.93;100.00
71109;BME280;59614;51.012;-1.648;2023-02-19T00:57:51;101562.47;;;7.85;100.00
71109;BME280;59614;51.012;-1.648;2023-02-19T01:00:16;101558.03;;;7.81;100.00
71109;BME280;59614;51.012;-1.648;2023-02-19T01:02:42;101560.66;;;7.81;99.87
71109;BME280;59614;51.012;-1.648;2023-02-19T01:05:07;101562.38;;;7.79;100.00
71109;BME280;59614;51.012;-1.648;2023-02-19T01:07:36;101552.69;;;7.75;100.00
71109;BME280;59614;51.012;-1.648;2023-02-19T01:10:03;101537.56;;;7.57;100.00
71109;BME280;59614;51.012;-1.648;2023-02-19T01:12:29;101547.16;;;7.56;100.00
71109;BME280;59614;51.012;-1.648;2023-02-19T01:14:55;101538.53;;;7.65;100.00
71109;BME280;59614;51.012;-1.648;2023-02-19T01:17:21;101534.88;;;7.52;100.00
71109;BME280;59614;51.012;-1.648;2023-02-19T01:19:46;101547.94;;;7.49;100.00
71109;BME280;59614;51.012;-1.648;2023-02-19T01:22:12;101561.09;;;7.49;100.00
71109;BME280;59614;51.012;-1.648;2023-02-19T01:24:37;101567.31;;;7.57;100.00
71109;BME280;59614;51.012;-1.648;2023-02-19T01:27:03;101567.38;;;7.62;100.00
71109;BME280;59614;51.012;-1.648;2023-02-19T01:29:28;101572.63;;;7.59;99.51
71109;BME280;59614;51.012;-1.648;2023-02-19T01:31:54;101583.81;;;7.49;100.00
71109;BME280;59614;51.012;-1.648;2023-02-19T01:34:19;101589.13;;;7.50;100.00
71109;BME280;59614;51.012;-1.648;2023-02-19T01:36:45;101585.59;;;7.48;100.00
71109;BME280;59614;51.012;-1.648;2023-02-19T01:39:10;101595.16;;;7.45;100.00
71109;BME280;59614;51.012;-1.648;2023-02-19T01:41:37;101596.00;;;7.42;99.93
71109;BME280;59614;51.012;-1.648;2023-02-19T01:44:56;101588.84;;;7.32;100.00
71109;BME280;59614;51.012;-1.648;2023-02-19T01:46:52;101589.47;;;7.17;100.00
71109;BME280;59614;51.012;-1.648;2023-02-19T01:49:34;101585.97;;;7.18;100.00
71109;BME280;59614;51.012;-1.648;2023-02-19T01:52:06;101592.22;;;7.24;100.00
71109;BME280;59614;51.012;-1.648;2023-02-19T01:54:36;101593.13;;;7.26;100.00
71109;BME280;59614;51.012;-1.648;2023-02-19T01:57:05;101602.06;;;7.36;100.00
71109;BME280;59614;51.012;-1.648;2023-02-19T01:59:32;101598.38;;;7.25;100.00
71109;BME280;59614;51.012;-1.648;2023-02-19T02:01:59;101606.34;;;7.31;100.00
71109;BME280;59614;51.012;-1.648;2023-02-19T02:04:25;101604.16;;;7.05;100.00
71109;BME280;59614;51.012;-1.648;2023-02-19T02:06:53;101614.00;;;7.19;100.00
71109;BME280;59614;51.012;-1.648;2023-02-19T02:09:21;101611.47;;;7.23;100.00
71109;BME280;59614;51.012;-1.648;2023-02-19T02:12:10;101617.34;;;7.08;100.00
71109;BME280;59614;51.012;-1.648;2023-02-19T02:14:40;101616.63;;;7.17;100.00
71109;BME280;59614;51.012;-1.648;2023-02-19T02:22:37;101636.78;;;7.20;100.00
71109;BME280;59614;51.012;-1.648;2023-02-19T02:31:09;101615.63;;;7.09;100.00
71109;BME280;59614;51.012;-1.648;2023-02-19T02:36:19;101623.22;;;6.93;100.00
71109;BME280;59614;51.012;-1.648;2023-02-19T02:38:47;101622.28;;;6.91;100.00
71109;BME280;59614;51.012;-1.648;2023-02-19T02:41:14;101621.38;;;6.89;100.00
71109;BME280;59614;51.012;-1.648;2023-02-19T02:43:40;101612.72;;;6.95;100.00
71109;BME280;59614;51.012;-1.648;2023-02-19T02:46:10;101618.81;;;6.92;100.00
71109;BME280;59614;51.012;-1.648;2023-02-19T02:48:48;101615.28;;;6.90;100.00
71109;BME280;59614;51.012;-1.648;2023-02-19T02:51:35;101615.19;;;6.84;100.00
71109;BME280;59614;51.012;-1.648;2023-02-19T02:54:32;101621.34;;;6.86;100.00
71109;BME280;59614;51.012;-1.648;2023-02-19T02:57:17;101614.13;;;6.76;100.00
71109;BME280;59614;51.012;-1.648;2023-02-19T02:59:44;101614.03;;;6.70;100.00
71109;BME280;59614;51.012;-1.648;2023-02-19T03:02:22;101617.56;;;6.72;100.00
71109;BME280;59614;51.012;-1.648;2023-02-19T03:08:05;101625.53;;;6.78;100.00
71109;BME280;59614;51.012;-1.648;2023-02-19T03:13:15;101631.47;;;6.68;100.00
71109;BME280;59614;51.012;-1.648;2023-02-19T03:16:11;101622.69;;;6.65;100.00
71109;BME280;59614;51.012;-1.648;2023-02-19T03:18:58;101639.34;;;6.66;100.00
71109;BME280;59614;51.012;-1.648;2023-02-19T03:21:46;101639.34;;;6.68;100.00
71109;BME280;59614;51.012;-1.648;2023-02-19T03:24:14;101641.97;;;6.68;100.00
71109;BME280;59614;51.012;-1.648;2023-02-19T03:27:01;101651.63;;;6.69;100.00
71109;BME280;59614;51.012;-1.648;2023-02-19T03:29:30;101644.72;;;6.74;100.00
71109;BME280;59614;51.012;-1.648;2023-02-19T03:31:59;101645.34;;;6.62;100.00
71109;BME280;59614;51.012;-1.648;2023-02-19T03:34:37;101647.97;;;6.62;100.00
71109;BME280;59614;51.012;-1.648;2023-02-19T03:37:16;101647.97;;;6.62;100.00
71109;BME280;59614;51.012;-1.648;2023-02-19T03:39:43;101639.84;;;6.48;100.00
71109;BME280;59614;51.012;-1.648;2023-02-19T03:42:30;101648.75;;;6.56;100.00
71109;BME280;59614;51.012;-1.648;2023-02-19T03:47:53;101650.44;;;6.54;100.00
71109;BME280;59614;51.012;-1.648;2023-02-19T03:51:19;101669.06;;;6.67;100.00
71109;BME280;59614;51.012;-1.648;2023-02-19T03:53:27;101688.19;;;6.61;100.00
71109;BME280;59614;51.012;-1.648;2023-02-19T03:56:09;101676.56;;;6.48;100.00
71109;BME280;59614;51.012;-1.648;2023-02-19T03:58:55;101678.41;;;6.52;100.00
71109;BME280;59614;51.012;-1.648;2023-02-19T04:01:27;101683.59;;;6.49;100.00
71109;BME280;59614;51.012;-1.648;2023-02-19T04:04:00;101678.16;;;6.40;100.00
71109;BME280;59614;51.012;-1.648;2023-02-19T04:06:30;101698.50;;;6.53;100.00
71109;BME280;59614;51.012;-1.648;2023-02-19T04:09:02;101689.78;;;6.54;100.00
71109;BME280;59614;51.012;-1.648;2023-02-19T04:11:30;101680.16;;;6.53;100.00
71109;BME280;59614;51.012;-1.648;2023-02-19T04:16:29;101694.59;;;6.32;100.00
71109;BME280;59614;51.012;-1.648;2023-02-19T04:18:59;101702.03;;;6.54;100.00
71109;BME280;59614;51.012;-1.648;2023-02-19T04:21:29;101704.56;;;6.49;100.00
71109;BME280;59614;51.012;-1.648;2023-02-19T04:23:57;101709.75;;;6.47;100.00
71109;BME280;59614;51.012;-1.648;2023-02-19T04:26:25;101701.81;;;6.43;100.00
71109;BME280;59614;51.012;-1.648;2023-02-19T04:28:50;101716.78;;;6.48;100.00
71109;BME280;59614;51.012;-1.648;2023-02-19T04:31:16;101714.16;;;6.48;100.00
71109;BME280;59614;51.012;-1.648;2023-02-19T04:33:41;101719.19;;;6.38;100.00
71109;BME280;59614;51.012;-1.648;2023-02-19T04:36:09;101711.41;;;6.41;100.00
71109;BME280;59614;51.012;-1.648;2023-02-19T04:38:35;101711.25;;;6.34;100.00
71109;BME280;59614;51.012;-1.648;2023-02-19T04:41:01;101717.22;;;6.27;100.00
71109;BME280;59614;51.012;-1.648;2023-02-19T04:43:26;101716.28;;;6.25;100.00
71109;BME280;59614;51.012;-1.648;2023-02-19T04:45:52;101718.25;;;6.36;100.00
71109;BME280;59614;51.012;-1.648;2023-02-19T04:48:17;101719.91;;;6.30;100.00
71109;BME280;59614;51.012;-1.648;2023-02-19T04:50:43;101723.31;;;6.26;100.00
71109;BME280;59614;51.012;-1.648;2023-02-19T04:53:09;101713.59;;;6.22;100.00
71109;BME280;59614;51.012;-1.648;2023-02-19T04:55:38;101729.09;;;6.11;100.00
71109;BME280;59614;51.012;-1.648;2023-02-19T04:58:03;101729.22;;;6.17;100.00
71109;BME280;59614;51.012;-1.648;2023-02-19T05:00:30;101739.91;;;6.27;100.00
71109;BME280;59614;51.012;-1.648;2023-02-19T05:02:55;101739.91;;;6.27;100.00
71109;BME280;59614;51.012;-1.648;2023-02-19T05:05:21;101729.31;;;6.22;100.00
71109;BME280;59614;51.012;-1.648;2023-02-19T05:07:46;101733.66;;;6.20;100.00
71109;BME280;59614;51.012;-1.648;2023-02-19T05:10:11;101736.84;;;6.07;100.00
71109;BME280;59614;51.012;-1.648;2023-02-19T05:12:37;101749.75;;;5.99;100.00
71109;BME280;59614;51.012;-1.648;2023-02-19T05:15:02;101751.69;;;6.06;100.00
71109;BME280;59614;51.012;-1.648;2023-02-19T05:17:28;101756.09;;;6.09;100.00
71109;BME280;59614;51.012;-1.648;2023-02-19T05:19:53;101755.22;;;6.08;100.00
71109;BME280;59614;51.012;-1.648;2023-02-19T05:22:19;101746.16;;;5.95;100.00
71109;BME280;59614;51.012;-1.648;2023-02-19T05:24:44;101752.31;;;5.97;100.00
71109;BME280;59614;51.012;-1.648;2023-02-19T05:27:10;101755.16;;;6.05;100.00
71109;BME280;59614;51.012;-1.648;2023-02-19T05:29:35;101753.53;;;6.10;100.00
71109;BME280;59614;51.012;-1.648;2023-02-19T05:32:00;101769.16;;;6.06;100.00
71109;BME280;59614;51.012;-1.648;2023-02-19T05:34:26;101768.34;;;6.10;100.00
71109;BME280;59614;51.012;-1.648;2023-02-19T05:36:51;101768.16;;;6.00;100.00
71109;BME280;59614;51.012;-1.648;2023-02-19T05:39:17;101764.56;;;5.98;100.00
71109;BME280;59614;51.012;-1.648;2023-02-19T05:41:42;101766.38;;;5.99;100.00
71109;BME280;59614;51.012;-1.648;2023-02-19T05:44:09;101769.75;;;5.95;100.00
71109;BME280;59614;51.012;-1.648;2023-02-19T05:46:35;101777.63;;;5.95;100.00
71109;BME280;59614;51.012;-1.648;2023-02-19T05:49:00;101779.47;;;5.99;100.00
71109;BME280;59614;51.012;-1.648;2023-02-19T05:51:27;101774.00;;;5.92;100.00
71109;BME280;59614;51.012;-1.648;2023-02-19T05:53:54;101771.28;;;5.87;100.00
71109;BME280;59614;51.012;-1.648;2023-02-19T05:58:48;101758.88;;;5.80;100.00
71109;BME280;59614;51.012;-1.648;2023-02-19T06:01:19;101757.13;;;5.79;100.00
71109;BME280;59614;51.012;-1.648;2023-02-19T06:03:45;101764.78;;;5.71;100.00
71109;BME280;59614;51.012;-1.648;2023-02-19T06:06:15;101772.59;;;5.69;100.00
71109;BME280;59614;51.012;-1.648;2023-02-19T06:08:40;101783.22;;;5.76;100.00
71109;BME280;59614;51.012;-1.648;2023-02-19T06:11:06;101777.13;;;5.77;100.00
71109;BME280;59614;51.012;-1.648;2023-02-19T06:13:32;101773.56;;;5.73;100.00
71109;BME280;59614;51.012;-1.648;2023-02-19T06:15:57;101788.41;;;5.72;100.00
71109;BME280;59614;51.012;-1.648;2023-02-19T06:18:23;101786.69;;;5.75;100.00
71109;BME280;59614;51.012;-1.648;2023-02-19T06:20:48;101780.34;;;5.65;100.00
71109;BME280;59614;51.012;-1.648;2023-02-19T06:23:14;101786.50;;;5.67;100.00
71109;BME280;59614;51.012;-1.648;2023-02-19T06:25:40;101792.81;;;5.74;100.00
71109;BME280;59614;51.012;-1.648;2023-02-19T06:28:05;101794.41;;;5.68;100.00
71109;BME280;59614;51.012;-1.648;2023-02-19T06:30:31;101802.25;;;5.68;100.00
71109;BME280;59614;51.012;-1.648;2023-02-19T06:32:56;101790.75;;;5.63;100.00
71109;BME280;59614;51.012;-1.648;2023-02-19T06:35:22;101803.09;;;5.67;100.00
71109;BME280;59614;51.012;-1.648;2023-02-19T06:37:47;101809.28;;;5.69;100.00
71109;BME280;59614;51.012;-1.648;2023-02-19T06:40:13;101813.63;;;5.69;100.00
71109;BME280;59614;51.012;-1.648;2023-02-19T06:42:39;101821.69;;;5.77;100.00
71109;BME280;59614;51.012;-1.648;2023-02-19T06:45:05;101829.38;;;5.70;100.00
71109;BME280;59614;51.012;-1.648;2023-02-19T06:47:31;101826.84;;;5.74;100.00
71109;BME280;59614;51.012;-1.648;2023-02-19T06:49:57;101827.88;;;5.80;100.00
71109;BME280;59614;51.012;-1.648;2023-02-19T06:52:22;101828.75;;;5.79;100.00
71109;BME280;59614;51.012;-1.648;2023-02-19T06:54:47;101828.56;;;5.73;100.00
71109;BME280;59614;51.012;-1.648;2023-02-19T06:57:13;101824.34;;;5.78;100.00
71109;BME280;59614;51.012;-1.648;2023-02-19T06:59:38;101828.78;;;5.81;100.00
71109;BME280;59614;51.012;-1.648;2023-02-19T07:02:04;101838.50;;;5.85;100.00
71109;BME280;59614;51.012;-1.648;2023-02-19T07:04:29;101836.56;;;5.78;100.00
71109;BME280;59614;51.012;-1.648;2023-02-19T07:06:54;101832.84;;;5.69;100.00
71109;BME280;59614;51.012;-1.648;2023-02-19T07:09:20;101840.63;;;5.66;100.00
71109;BME280;59614;51.012;-1.648;2023-02-19T07:11:46;101843.00;;;5.57;100.00
71109;BME280;59614;51.012;-1.648;2023-02-19T07:14:15;101842.16;;;5.58;100.00
71109;BME280;59614;51.012;-1.648;2023-02-19T07:16:42;101843.16;;;5.63;100.00
71109;BME280;59614;51.012;-1.648;2023-02-19T07:19:09;101843.16;;;5.63;100.00
71109;BME280;59614;51.012;-1.648;2023-02-19T07:21:34;101838.00;;;5.66;100.00
71109;BME280;59614;51.012;-1.648;2023-02-19T07:24:02;101842.41;;;5.67;100.00
71109;BME280;59614;51.012;-1.648;2023-02-19T07:26:28;101852.88;;;5.67;100.00
71109;BME280;59614;51.012;-1.648;2023-02-19T07:28:54;101864.50;;;5.77;100.00
71109;BME280;59614;51.012;-1.648;2023-02-19T07:31:22;101867.38;;;5.88;100.00
71109;BME280;59614;51.012;-1.648;2023-02-19T07:33:48;101866.59;;;5.91;100.00
71109;BME280;59614;51.012;-1.648;2023-02-19T07:36:15;101869.63;;;6.06;100.00
71109;BME280;59614;51.012;-1.648;2023-02-19T07:38:42;101870.59;;;6.10;100.00
71109;BME280;59614;51.012;-1.648;2023-02-19T07:41:08;101882.53;;;6.33;100.00
71109;BME280;59614;51.012;-1.648;2023-02-19T07:43:35;101885.56;;;6.51;99.90
71109;BME280;59614;51.012;-1.648;2023-02-19T07:46:03;101892.91;;;6.65;99.10
71109;BME280;59614;51.012;-1.648;2023-02-19T07:48:28;101894.63;;;6.63;98.09
71109;BME280;59614;51.012;-1.648;2023-02-19T07:50:56;101888.50;;;6.63;97.89
71109;BME280;59614;51.012;-1.648;2023-02-19T07:53:23;101888.50;;;6.64;98.79
71109;BME280;59614;51.012;-1.648;2023-02-19T07:55:48;101898.13;;;6.64;98.43
71109;BME280;59614;51.012;-1.648;2023-02-19T07:58:14;101901.28;;;6.87;98.03
71109;BME280;59614;51.012;-1.648;2023-02-19T08:00:40;101888.13;;;6.86;97.27
71109;BME280;59614;51.012;-1.648;2023-02-19T08:03:06;101875.44;;;6.66;97.75
71109;BME280;59614;51.012;-1.648;2023-02-19T08:05:40;101878.44;;;6.45;98.75
71109;BME280;59614;51.012;-1.648;2023-02-19T08:08:07;101873.84;;;6.73;99.45
71109;BME280;59614;51.012;-1.648;2023-02-19T08:10:33;101883.53;;;7.17;98.42
71109;BME280;59614;51.012;-1.648;2023-02-19T08:13:17;101895.03;;;7.20;96.17
71109;BME280;59614;51.012;-1.648;2023-02-19T08:15:45;101894.91;;;7.16;96.64
71109;BME280;59614;51.012;-1.648;2023-02-19T08:18:12;101896.38;;;7.03;96.94
71109;BME280;59614;51.012;-1.648;2023-02-19T08:20:38;101890.09;;;6.94;97.96
71109;BME280;59614;51.012;-1.648;2023-02-19T08:23:05;101891.81;;;6.94;97.85
71109;BME280;59614;51.012;-1.648;2023-02-19T08:25:31;101890.38;;;7.08;98.18
71109;BME280;59614;51.012;-1.648;2023-02-19T08:27:57;101893.09;;;7.13;97.49
71109;BME280;59614;51.012;-1.648;2023-02-19T08:30:25;101908.00;;;7.14;97.87
71109;BME280;59614;51.012;-1.648;2023-02-19T08:32:51;101919.50;;;7.19;97.37
71109;BME280;59614;51.012;-1.648;2023-02-19T08:35:16;101923.19;;;7.28;97.15
71109;BME280;59614;51.012;-1.648;2023-02-19T08:37:41;101925.22;;;7.41;96.24
71109;BME280;59614;51.012;-1.648;2023-02-19T08:40:07;101913.63;;;7.33;96.20
71109;BME280;59614;51.012;-1.648;2023-02-19T08:42:33;101911.22;;;7.42;96.68
71109;BME280;59614;51.012;-1.648;2023-02-19T08:44:58;101921.78;;;7.45;94.64
71109;BME280;59614;51.012;-1.648;2023-02-19T08:47:24;101919.25;;;7.96;94.70
71109;BME280;59614;51.012;-1.648;2023-02-19T08:49:49;101938.91;;;8.16;93.48
71109;BME280;59614;51.012;-1.648;2023-02-19T08:52:15;101953.16;;;8.28;92.55
71109;BME280;59614;51.012;-1.648;2023-02-19T08:54:40;101962.66;;;8.70;91.19
71109;BME280;59614;51.012;-1.648;2023-02-19T08:57:05;101965.59;;;8.90;89.69
71109;BME280;59614;51.012;-1.648;2023-02-19T08:59:31;101974.56;;;9.02;88.32
71109;BME280;59614;51.012;-1.648;2023-02-19T09:02:00;101957.69;;;8.89;88.11
71109;BME280;59614;51.012;-1.648;2023-02-19T09:04:25;101953.47;;;9.02;89.53
71109;BME280;59614;51.012;-1.648;2023-02-19T09:06:51;101955.56;;;9.23;89.18
71109;BME280;59614;51.012;-1.648;2023-02-19T09:09:16;101943.50;;;9.43;88.60
71109;BME280;59614;51.012;-1.648;2023-02-19T09:11:42;101961.84;;;9.34;88.14
71109;BME280;59614;51.012;-1.648;2023-02-19T09:14:07;101978.63;;;9.42;88.38
71109;BME280;59614;51.012;-1.648;2023-02-19T09:16:33;101968.19;;;9.50;88.49
71109;BME280;59614;51.012;-1.648;2023-02-19T09:18:59;101972.34;;;9.33;86.76
71109;BME280;59614;51.012;-1.648;2023-02-19T09:21:25;101968.22;;;9.53;87.62
71109;BME280;59614;51.012;-1.648;2023-02-19T09:23:50;101962.25;;;9.68;87.54
71109;BME280;59614;51.012;-1.648;2023-02-19T09:26:15;101968.25;;;9.56;86.49
71109;BME280;59614;51.012;-1.648;2023-02-19T09:28:41;101968.66;;;9.89;86.39
71109;BME280;59614;51.012;-1.648;2023-02-19T09:31:09;101976.81;;;10.12;85.76
71109;BME280;59614;51.012;-1.648;2023-02-19T09:33:35;101964.34;;;9.97;85.54
71109;BME280;59614;51.012;-1.648;2023-02-19T09:36:01;101966.44;;;10.29;85.15
71109;BME280;59614;51.012;-1.648;2023-02-19T09:38:27;101976.22;;;10.38;85.06
71109;BME280;59614;51.012;-1.648;2023-02-19T09:40:56;101971.84;;;10.42;83.37
71109;BME280;59614;51.012;-1.648;2023-02-19T09:43:23;101983.41;;;10.53;83.21
71109;BME280;59614;51.012;-1.648;2023-02-19T09:46:00;101980.78;;;10.56;82.30
71109;BME280;59614;51.012;-1.648;2023-02-19T09:48:27;101977.13;;;10.42;82.47
71109;BME280;59614;51.012;-1.648;2023-02-19T09:50:54;101991.03;;;10.28;83.99
71109;BME280;59614;51.012;-1.648;2023-02-19T09:53:28;101992.09;;;10.41;83.40
71109;BME280;59614;51.012;-1.648;2023-02-19T09:55:56;101991.28;;;10.48;82.79
71109;BME280;59614;51.012;-1.648;2023-02-19T09:58:29;101992.22;;;10.57;82.28
71109;BME280;59614;51.012;-1.648;2023-02-19T10:00:57;101996.03;;;10.94;81.25
71109;BME280;59614;51.012;-1.648;2023-02-19T10:03:36;102005.47;;;10.61;80.14
71109;BME280;59614;51.012;-1.648;2023-02-19T10:06:17;102002.28;;;11.06;80.07
71109;BME280;59614;51.012;-1.648;2023-02-19T10:08:46;102018.53;;;11.74;78.45
71109;BME280;59614;51.012;-1.648;2023-02-19T10:11:13;102019.56;;;12.07;77.09
71109;BME280;59614;51.012;-1.648;2023-02-19T10:13:50;102019.66;;;12.54;74.79
71109;BME280;59614;51.012;-1.648;2023-02-19T10:16:24;102016.94;;;12.13;75.65
71109;BME280;59614;51.012;-1.648;2023-02-19T10:18:51;102009.88;;;12.03;75.19
71109;BME280;59614;51.012;-1.648;2023-02-19T10:21:20;102010.84;;;12.59;74.29
71109;BME280;59614;51.012;-1.648;2023-02-19T10:23:52;102015.22;;;12.96;70.49
71109;BME280;59614;51.012;-1.648;2023-02-19T10:26:19;102014.34;;;13.02;72.59
71109;BME280;59614;51.012;-1.648;2023-02-19T10:28:44;102012.56;;;12.40;72.08
71109;BME280;59614;51.012;-1.648;2023-02-19T10:31:21;102009.94;;;12.46;70.43
71109;BME280;59614;51.012;-1.648;2023-02-19T10:33:57;102014.19;;;11.87;70.66
71109;BME280;59614;51.012;-1.648;2023-02-19T10:36:31;102009.06;;;12.44;72.14
71109;BME280;59614;51.012;-1.648;2023-02-19T10:38:59;102013.47;;;12.73;71.50
71109;BME280;59614;51.012;-1.648;2023-02-19T10:41:26;102001.09;;;13.11;69.79
71109;BME280;59614;51.012;-1.648;2023-02-19T10:46:46;102017.00;;;13.00;69.84
71109;BME280;59614;51.012;-1.648;2023-02-19T10:49:36;102032.91;;;13.12;70.33
71109;BME280;59614;51.012;-1.648;2023-02-19T10:52:15;102046.16;;;13.12;68.74
71109;BME280;59614;51.012;-1.648;2023-02-19T10:54:43;102033.78;;;13.08;67.91
71109;BME280;59614;51.012;-1.648;2023-02-19T10:59:50;102021.44;;;12.86;66.04
71109;BME280;59614;51.012;-1.648;2023-02-19T11:02:18;102013.47;;;13.03;68.07
71109;BME280;59614;51.012;-1.648;2023-02-19T11:05:13;102018.75;;;13.15;65.67
71109;BME280;59614;51.012;-1.648;2023-02-19T11:07:53;102024.06;;;13.13;66.10
71109;BME280;59614;51.012;-1.648;2023-02-19T11:10:29;102029.34;;;13.48;66.86
71109;BME280;59614;51.012;-1.648;2023-02-19T11:13:01;102027.47;;;13.78;65.55
71109;BME280;59614;51.012;-1.648;2023-02-19T11:15:34;102027.50;;;13.71;64.98
71109;BME280;59614;51.012;-1.648;2023-02-19T11:20:30;102027.50;;;13.68;64.97
71109;BME280;59614;51.012;-1.648;2023-02-19T11:22:59;102028.28;;;13.92;64.51
71109;BME280;59614;51.012;-1.648;2023-02-19T11:25:26;102021.97;;;14.15;63.94
71109;BME280;59614;51.012;-1.648;2023-02-19T11:27:54;102027.41;;;13.87;63.48
71109;BME280;59614;51.012;-1.648;2023-02-19T11:32:58;102010.59;;;13.91;63.25
71109;BME280;59614;51.012;-1.648;2023-02-19T11:35:37;101994.53;;;14.14;61.52
71109;BME280;59614;51.012;-1.648;2023-02-19T11:38:07;101993.88;;;13.69;60.70
71109;BME280;59614;51.012;-1.648;2023-02-19T11:45:54;101991.72;;;14.38;60.97
71109;BME280;59614;51.012;-1.648;2023-02-19T11:48:43;101989.91;;;14.43;62.48
71109;BME280;59614;51.012;-1.648;2023-02-19T11:54:54;101989.28;;;14.02;63.20
71109;BME280;59614;51.012;-1.648;2023-02-19T12:05:36;101989.81;;;14.58;61.23
71109;BME280;59614;51.012;-1.648;2023-02-19T12:16:34;101991.09;;;15.15;60.55
71109;BME280;59614;51.012;-1.648;2023-02-19T12:27:31;101975.09;;;15.18;58.15
71109;BME280;59614;51.012;-1.648;2023-02-19T12:38:24;101961.41;;;15.51;59.95
71109;BME280;59614;51.012;-1.648;2023-02-19T12:40:59;101962.16;;;15.62;59.93
71109;BME280;59614;51.012;-1.648;2023-02-19T12:43:29;101950.94;;;15.37;60.44
71109;BME280;59614;51.012;-1.648;2023-02-19T12:46:00;101949.31;;;15.23;59.18
71109;BME280;59614;51.012;-1.648;2023-02-19T12:51:32;101952.97;;;15.14;59.04
71109;BME280;59614;51.012;-1.648;2023-02-19T12:54:05;101943.66;;;15.53;60.10
71109;BME280;59614;51.012;-1.648;2023-02-19T12:56:59;101942.81;;;15.49;59.01
71109;BME280;59614;51.012;-1.648;2023-02-19T12:59:30;101935.44;;;15.70;58.41
71109;BME280;59614;51.012;-1.648;2023-02-19T13:07:37;101948.59;;;15.10;61.42
71109;BME280;59614;51.012;-1.648;2023-02-19T13:12:59;101932.88;;;15.62;61.05
71109;BME280;59614;51.012;-1.648;2023-02-19T13:15:37;101922.69;;;15.26;60.74
71109;BME280;59614;51.012;-1.648;2023-02-19T13:18:06;101922.53;;;15.42;60.36
71109;BME280;59614;51.012;-1.648;2023-02-19T13:20:40;101929.00;;;15.19;60.83
71109;BME280;59614;51.012;-1.648;2023-02-19T13:23:26;101921.88;;;15.20;61.86
71109;BME280;59614;51.012;-1.648;2023-02-19T13:26:19;101921.78;;;15.29;60.06
71109;BME280;59614;51.012;-1.648;2023-02-19T13:28:52;101929.63;;;15.40;61.75
71109;BME280;59614;51.012;-1.648;2023-02-19T13:37:02;101926.03;;;15.46;61.24
71109;BME280;59614;51.012;-1.648;2023-02-19T13:39:28;101918.00;;;15.47;60.18
71109;BME280;59614;51.012;-1.648;2023-02-19T13:41:55;101924.25;;;15.43;61.10
71109;BME280;59614;51.012;-1.648;2023-02-19T13:44:24;101915.50;;;15.35;59.77
71109;BME280;59614;51.012;-1.648;2023-02-19T13:46:51;101906.03;;;15.12;60.62
71109;BME280;59614;51.012;-1.648;2023-02-19T13:51:57;101900.97;;;14.87;62.09
71109;BME280;59614;51.012;-1.648;2023-02-19T13:54:31;101902.09;;;15.42;61.76
71109;BME280;59614;51.012;-1.648;2023-02-19T13:59:48;101892.06;;;15.65;61.91
71109;BME280;59614;51.012;-1.648;2023-02-19T14:02:30;101895.22;;;15.24;61.04
71109;BME280;59614;51.012;-1.648;2023-02-19T14:05:08;101892.06;;;14.91;63.17
71109;BME280;59614;51.012;-1.648;2023-02-19T14:07:50;101878.47;;;15.18;62.41
71109;BME280;59614;51.012;-1.648;2023-02-19T14:10:51;101867.69;;;15.30;61.55
71109;BME280;59614;51.012;-1.648;2023-02-19T14:18:52;101868.34;;;14.71;62.19
71109;BME280;59614;51.012;-1.648;2023-02-19T14:21:25;101878.88;;;14.85;61.75
71109;BME280;59614;51.012;-1.648;2023-02-19T14:23:54;101873.44;;;14.93;61.63
71109;BME280;59614;51.012;-1.648;2023-02-19T14:26:23;101876.16;;;14.88;60.97
71109;BME280;59614;51.012;-1.648;2023-02-19T14:28:50;101879.81;;;14.78;61.54
71109;BME280;59614;51.012;-1.648;2023-02-19T14:31:28;101874.34;;;14.93;62.01
71109;BME280;59614;51.012;-1.648;2023-02-19T14:33:59;101871.19;;;15.35;61.17
71109;BME280;59614;51.012;-1.648;2023-02-19T14:36:34;101877.44;;;15.29;61.07
71109;BME280;59614;51.012;-1.648;2023-02-19T14:39:12;101879.38;;;15.18;60.36
71109;BME280;59614;51.012;-1.648;2023-02-19T14:41:42;101884.25;;;14.77;60.62